Time;durP1;ratioP1;P1;durP2;ratioP2;P2;SDS_P1;SDS_P2;PMS_P1;PMS_P2;Temp;Humidity;BMP_temperature;BMP_pressure;BME280_temperature;BME280_humidity;BME280_pressure;Samples;Min_cycle;Max_cycle;Signal;HPM_P1;HPM_P2
2022/10/09 00:02:18;;;;;;;8.43;2.75;;;9.10;99.90;;;;;;5016621;28;20095;-63
2022/10/09 00:04:43;;;;;;;6.28;2.88;;;9.10;99.90;;;;;;5033635;28;20379;-62
2022/10/09 00:07:09;;;;;;;10.13;3.47;;;9.00;99.90;;;;;;5032680;28;20394;-63
2022/10/09 00:09:34;;;;;;;8.05;2.85;;;9.10;99.90;;;;;;5066093;28;20050;-63
2022/10/09 00:12:00;;;;;;;9.93;3.55;;;9.00;99.90;;;;;;5032332;28;20041;-62
2022/10/09 00:14:26;;;;;;;7.82;2.47;;;9.10;99.90;;;;;;5032590;28;20041;-62
2022/10/09 00:16:53;;;;;;;8.02;2.47;;;9.00;99.90;;;;;;5031884;28;20045;-63
2022/10/09 00:19:19;;;;;;;10.05;2.40;;;9.00;99.90;;;;;;5033997;28;20038;-62
2022/10/09 00:21:44;;;;;;;10.43;2.75;;;9.00;99.90;;;;;;5033645;28;20053;-63
2022/10/09 00:24:10;;;;;;;9.40;2.70;;;9.00;99.90;;;;;;5033352;28;20041;-62
2022/10/09 00:26:36;;;;;;;8.75;3.08;;;9.00;99.90;;;;;;5032454;28;20038;-62
2022/10/09 00:29:01;;;;;;;10.70;2.95;;;8.90;99.90;;;;;;5016009;28;20129;-62
2022/10/09 00:31:27;;;;;;;7.97;2.75;;;8.90;99.90;;;;;;5032865;28;20402;-62
2022/10/09 00:33:53;;;;;;;8.15;2.80;;;8.90;99.90;;;;;;5033644;28;20071;-63
2022/10/09 00:36:22;;;;;;;6.97;3.25;;;8.90;99.90;;;;;;5065442;28;20080;-62
2022/10/09 00:38:48;;;;;;;9.38;2.80;;;8.90;99.90;;;;;;5031719;28;20045;-63
2022/10/09 00:41:20;;;;;;;10.77;2.65;;;8.90;99.90;;;;;;5033540;28;20052;-62
2022/10/09 00:43:48;;;;;;;10.20;2.78;;;8.90;99.90;;;;;;5032084;28;20045;-62
2022/10/09 00:46:26;;;;;;;7.13;2.78;;;8.90;99.90;;;;;;5014753;28;20045;-62
2022/10/09 00:49:01;;;;;;;7.95;2.53;;;8.80;99.90;;;;;;5033244;28;20042;-63
2022/10/09 00:51:29;;;;;;;7.93;2.20;;;8.80;99.90;;;;;;5033329;28;20056;-63
2022/10/09 00:53:56;;;;;;;10.50;2.80;;;8.80;99.90;;;;;;5032336;28;20067;-63
2022/10/09 00:56:22;;;;;;;7.60;2.78;;;8.80;99.90;;;;;;5031820;28;20124;-63
2022/10/09 00:58:52;;;;;;;7.88;2.92;;;8.80;99.90;;;;;;5032955;28;20037;-63
2022/10/09 01:01:18;;;;;;;8.13;3.10;;;8.70;99.90;;;;;;5033067;28;20379;-62
2022/10/09 01:03:44;;;;;;;8.60;2.83;;;8.70;99.90;;;;;;5065516;28;20475;-63
2022/10/09 01:06:13;;;;;;;8.90;3.08;;;8.70;99.90;;;;;;5014964;28;20053;-62
2022/10/09 01:09:18;;;;;;;10.23;2.83;;;8.70;99.90;;;;;;5032270;28;20394;-63
2022/10/09 01:11:59;;;;;;;6.10;2.28;;;8.70;99.90;;;;;;5065391;28;20128;-63
2022/10/09 01:14:41;;;;;;;6.03;2.45;;;8.60;99.90;;;;;;5032260;28;20086;-62
2022/10/09 01:17:18;;;;;;;12.23;2.90;;;8.60;99.90;;;;;;5032439;28;20478;-62
2022/10/09 01:19:56;;;;;;;9.23;3.00;;;8.60;99.90;;;;;;5032152;28;20124;-62
2022/10/09 01:23:01;;;;;;;7.57;2.90;;;8.60;99.90;;;;;;5048186;28;20136;-62
2022/10/09 01:25:45;;;;;;;10.13;2.97;;;8.60;99.90;;;;;;5064570;28;20051;-62
2022/10/09 01:28:13;;;;;;;10.23;3.22;;;8.50;99.90;;;;;;5030625;28;20127;-62
2022/10/09 01:30:39;;;;;;;7.53;2.40;;;8.50;99.90;;;;;;5048391;28;20049;-62
2022/10/09 01:33:05;;;;;;;8.27;2.85;;;8.50;99.90;;;;;;5032808;28;20080;-62
2022/10/09 01:35:31;;;;;;;7.57;3.42;;;8.40;99.90;;;;;;5030692;28;20427;-63
2022/10/09 01:38:00;;;;;;;6.18;2.42;;;8.50;99.90;;;;;;5032482;28;20030;-62
2022/10/09 01:40:27;;;;;;;8.35;3.00;;;8.40;99.90;;;;;;5032869;28;20033;-62
2022/10/09 01:42:54;;;;;;;7.15;2.58;;;8.40;99.90;;;;;;5031452;28;20116;-62
2022/10/09 01:45:20;;;;;;;8.07;2.63;;;8.40;99.90;;;;;;5032294;28;20048;-62
2022/10/09 01:47:46;;;;;;;9.88;2.97;;;8.40;99.90;;;;;;5064485;28;20041;-63
2022/10/09 01:50:15;;;;;;;6.60;3.38;;;8.40;99.90;;;;;;5030351;28;20124;-62
2022/10/09 01:52:52;;;;;;;7.95;3.25;;;8.30;99.90;;;;;;5032648;28;20391;-63
2022/10/09 01:55:17;;;;;;;5.90;3.15;;;8.30;99.90;;;;;;5029883;28;20458;-62
2022/10/09 01:57:53;;;;;;;7.30;3.22;;;8.30;99.90;;;;;;5031114;28;20045;-63
2022/10/09 02:00:20;;;;;;;5.78;2.90;;;8.30;99.90;;;;;;5032245;28;20483;-62
2022/10/09 02:02:48;;;;;;;16.20;3.17;;;8.30;99.90;;;;;;5031470;28;20048;-62
2022/10/09 02:05:26;;;;;;;9.13;2.95;;;8.30;99.90;;;;;;5032213;28;20129;-62
2022/10/09 02:07:54;;;;;;;7.50;3.15;;;8.30;99.90;;;;;;5030782;28;20042;-62
2022/10/09 02:10:20;;;;;;;13.32;3.47;;;8.30;99.90;;;;;;5029917;28;20124;-63
2022/10/09 02:12:53;;;;;;;9.50;2.95;;;8.20;99.90;;;;;;5032010;28;20033;-63
2022/10/09 02:15:22;;;;;;;9.35;2.97;;;8.20;99.90;;;;;;5030750;28;20041;-63
2022/10/09 02:17:50;;;;;;;7.03;2.80;;;8.20;99.90;;;;;;5031608;28;20371;-62
2022/10/09 02:20:27;;;;;;;7.60;2.88;;;8.20;99.90;;;;;;5032031;28;20095;-63
2022/10/09 02:22:54;;;;;;;5.18;2.25;;;8.20;99.90;;;;;;5032149;28;20045;-63
2022/10/09 02:25:20;;;;;;;14.90;2.88;;;8.20;99.90;;;;;;5030034;28;20487;-63
2022/10/09 02:27:46;;;;;;;7.55;2.75;;;8.20;99.90;;;;;;5033192;28;20056;-63
2022/10/09 02:30:14;;;;;;;8.00;2.63;;;8.20;99.90;;;;;;5035822;28;20049;-63
2022/10/09 02:32:40;;;;;;;7.55;3.03;;;8.20;99.90;;;;;;5035553;28;20041;-62
2022/10/09 02:35:06;;;;;;;10.73;2.58;;;8.20;99.90;;;;;;5051086;28;20128;-62
2022/10/09 02:37:32;;;;;;;8.27;2.85;;;8.20;99.90;;;;;;5066980;28;20045;-63
2022/10/09 02:39:57;;;;;;;7.70;3.00;;;8.20;99.90;;;;;;5034449;28;20490;-63
2022/10/09 02:42:24;;;;;;;7.57;3.00;;;8.20;99.90;;;;;;5034605;28;20053;-62
2022/10/09 02:44:51;;;;;;;11.25;3.58;;;8.10;99.90;;;;;;5034883;28;20402;-63
2022/10/09 02:47:16;;;;;;;8.60;3.70;;;8.10;99.90;;;;;;5035585;28;20095;-62
2022/10/09 02:49:42;;;;;;;10.68;3.38;;;8.10;99.90;;;;;;5035726;28;20045;-63
2022/10/09 02:52:08;;;;;;;11.05;3.58;;;8.10;99.90;;;;;;5034890;28;20033;-62
2022/10/09 02:54:33;;;;;;;7.90;3.65;;;8.10;99.90;;;;;;5034012;28;20048;-62
2022/10/09 02:56:59;;;;;;;10.85;4.03;;;8.00;99.90;;;;;;5035357;28;20414;-63
2022/10/09 02:59:25;;;;;;;9.55;3.63;;;8.00;99.90;;;;;;5034716;28;20037;-62
2022/10/09 03:01:50;;;;;;;9.25;4.03;;;8.00;99.90;;;;;;5035289;28;20037;-63
2022/10/09 03:04:16;;;;;;;8.70;3.60;;;8.10;99.90;;;;;;5035227;28;20048;-63
2022/10/09 03:06:41;;;;;;;11.25;4.25;;;8.10;99.90;;;;;;5033428;28;20037;-62
2022/10/09 03:09:07;;;;;;;9.63;3.88;;;8.10;99.90;;;;;;5033924;28;20445;-62
2022/10/09 03:11:33;;;;;;;7.85;3.60;;;8.10;99.90;;;;;;5035266;28;20379;-63
2022/10/09 03:13:58;;;;;;;12.82;5.00;;;8.10;99.90;;;;;;5034199;28;20041;-63
2022/10/09 03:16:25;;;;;;;8.38;3.97;;;8.10;99.90;;;;;;5033999;28;20034;-62
2022/10/09 03:18:52;;;;;;;11.15;4.72;;;8.00;99.90;;;;;;5034909;28;20049;-62
2022/10/09 03:21:21;;;;;;;9.18;4.45;;;8.00;99.90;;;;;;5032929;28;20056;-63
2022/10/09 03:23:47;;;;;;;9.70;4.28;;;8.00;99.90;;;;;;5034923;28;20402;-63
2022/10/09 03:26:16;;;;;;;9.82;4.93;;;8.00;99.90;;;;;;5034354;28;20049;-63
2022/10/09 03:28:44;;;;;;;10.02;4.30;;;8.00;99.90;;;;;;5034469;28;20099;-62
2022/10/09 03:31:10;;;;;;;10.55;4.35;;;8.00;99.90;;;;;;5033782;28;20038;-62
2022/10/09 03:33:36;;;;;;;11.02;4.85;;;8.00;99.90;;;;;;5065901;28;20084;-62
2022/10/09 03:36:03;;;;;;;9.85;4.40;;;8.00;99.90;;;;;;5034881;28;20033;-62
2022/10/09 03:38:29;;;;;;;13.70;5.32;;;8.00;99.90;;;;;;5033251;28;20142;-62
2022/10/09 03:41:01;;;;;;;9.82;4.93;;;8.00;99.90;;;;;;5033822;28;20057;-62
2022/10/09 03:43:27;;;;;;;7.25;4.07;;;8.00;99.90;;;;;;5034643;28;20045;-62
2022/10/09 03:45:53;;;;;;;8.23;4.40;;;7.90;99.90;;;;;;5033337;28;20077;-62
2022/10/09 03:48:19;;;;;;;11.63;4.82;;;8.00;99.90;;;;;;5015946;28;20431;-62
2022/10/09 03:50:45;;;;;;;13.23;5.43;;;7.90;99.90;;;;;;5033297;28;20045;-63
2022/10/09 03:53:11;;;;;;;12.32;4.30;;;7.90;99.90;;;;;;5034768;28;20116;-62
2022/10/09 03:55:38;;;;;;;11.32;4.93;;;7.90;99.90;;;;;;5032478;28;20148;-62
2022/10/09 03:58:04;;;;;;;11.57;4.72;;;7.90;99.90;;;;;;5034268;28;20080;-62
2022/10/09 04:00:30;;;;;;;8.73;4.80;;;7.90;99.90;;;;;;5033095;28;20080;-63
2022/10/09 04:02:56;;;;;;;9.27;5.35;;;7.90;99.90;;;;;;5032305;28;20081;-62
2022/10/09 04:05:22;;;;;;;12.63;5.88;;;7.90;99.90;;;;;;5034037;28;20077;-62
2022/10/09 04:07:48;;;;;;;10.52;5.50;;;7.90;99.90;;;;;;5016664;28;20052;-63
2022/10/09 04:10:14;;;;;;;10.80;5.28;;;7.90;99.90;;;;;;5032166;28;20478;-63
2022/10/09 04:12:40;;;;;;;11.13;5.40;;;7.90;99.90;;;;;;5066562;28;20037;-63
2022/10/09 04:15:06;;;;;;;12.07;5.82;;;7.90;99.90;;;;;;5032727;28;20048;-62
2022/10/09 04:17:31;;;;;;;10.77;5.88;;;7.90;99.90;;;;;;5033098;28;20072;-62
2022/10/09 04:19:57;;;;;;;12.70;6.18;;;7.90;99.90;;;;;;5032545;28;20073;-62
2022/10/09 04:22:23;;;;;;;11.18;7.35;;;7.90;99.90;;;;;;5033851;28;20128;-62
2022/10/09 04:24:49;;;;;;;11.52;7.30;;;7.90;99.90;;;;;;5031722;28;20044;-63
2022/10/09 04:27:15;;;;;;;11.30;7.38;;;8.00;99.90;;;;;;5033740;28;20045;-62
2022/10/09 04:29:41;;;;;;;11.95;7.03;;;7.90;99.90;;;;;;5033832;28;20517;-62
2022/10/09 04:32:06;;;;;;;12.35;6.85;;;8.00;99.90;;;;;;5033054;28;20041;-63
2022/10/09 04:34:32;;;;;;;14.07;6.75;;;7.90;99.90;;;;;;5033735;28;20044;-63
2022/10/09 04:36:58;;;;;;;13.15;6.97;;;7.90;99.90;;;;;;5048070;28;20045;-63
2022/10/09 04:39:23;;;;;;;14.20;7.95;;;7.90;99.90;;;;;;5032258;28;20037;-63
2022/10/09 04:41:49;;;;;;;13.88;7.07;;;7.90;99.90;;;;;;5065469;28;20068;-62
2022/10/09 04:44:15;;;;;;;12.73;6.95;;;7.90;99.90;;;;;;5032571;28;20390;-63
2022/10/09 04:46:45;;;;;;;12.38;7.78;;;7.90;99.90;;;;;;5033848;28;20474;-63
2022/10/09 04:49:13;;;;;;;14.32;7.55;;;7.90;99.90;;;;;;5036654;28;20037;-63
2022/10/09 04:51:38;;;;;;;12.55;7.30;;;7.90;99.90;;;;;;5081106;28;20084;-63
2022/10/09 04:54:04;;;;;;;12.77;7.75;;;7.90;99.90;;;;;;5049868;28;20584;-62
2022/10/09 04:56:30;;;;;;;13.25;6.93;;;7.80;99.90;;;;;;5032591;28;20425;-63
2022/10/09 04:58:56;;;;;;;14.30;8.23;;;7.80;99.90;;;;;;5049209;28;20041;-62
2022/10/09 05:01:24;;;;;;;10.93;7.68;;;7.80;99.90;;;;;;5048992;28;20048;-62
2022/10/09 05:03:51;;;;;;;13.68;8.35;;;7.80;99.90;;;;;;5050225;28;20081;-62
2022/10/09 05:06:17;;;;;;;15.25;8.57;;;7.80;99.90;;;;;;5031268;28;20059;-63
2022/10/09 05:08:43;;;;;;;13.05;7.60;;;7.80;99.90;;;;;;5046857;28;20098;-62
2022/10/09 05:11:13;;;;;;;12.18;7.28;;;7.80;99.90;;;;;;5048308;28;20136;-62
2022/10/09 05:13:44;;;;;;;16.95;8.90;;;7.80;99.90;;;;;;5049864;28;20033;-63
2022/10/09 05:16:16;;;;;;;13.60;8.63;;;7.70;99.90;;;;;;5050407;28;20375;-63
2022/10/09 05:18:47;;;;;;;15.23;8.77;;;7.80;99.90;;;;;;5048823;28;20075;-62
2022/10/09 05:21:16;;;;;;;12.80;8.00;;;7.80;99.90;;;;;;5049026;28;20048;-63
2022/10/09 05:23:42;;;;;;;12.85;8.05;;;7.70;99.90;;;;;;5046853;28;20043;-63
2022/10/09 05:26:11;;;;;;;16.30;10.25;;;7.70;99.90;;;;;;5041512;28;20038;-62
2022/10/09 05:28:37;;;;;;;13.15;9.35;;;7.70;99.90;;;;;;5047455;28;20037;-62
2022/10/09 05:31:05;;;;;;;15.73;9.10;;;7.70;99.90;;;;;;5047486;28;20080;-62
2022/10/09 05:33:31;;;;;;;14.48;8.88;;;7.70;99.90;;;;;;5047759;28;20140;-63
2022/10/09 05:35:59;;;;;;;15.18;8.18;;;7.70;99.90;;;;;;5074248;28;20425;-62
2022/10/09 05:38:26;;;;;;;16.25;8.30;;;7.70;99.90;;;;;;5054372;28;20070;-62
2022/10/09 05:40:57;;;;;;;13.95;7.55;;;7.70;99.90;;;;;;5046424;28;20120;-62
2022/10/09 05:43:28;;;;;;;13.48;8.63;;;7.70;99.90;;;;;;5068186;28;20045;-62
2022/10/09 05:45:54;;;;;;;15.88;7.57;;;7.60;99.90;;;;;;5047174;28;20051;-62
2022/10/09 05:48:21;;;;;;;17.02;8.70;;;7.60;99.90;;;;;;5026945;28;20119;-62
2022/10/09 05:50:47;;;;;;;13.27;7.50;;;7.60;99.90;;;;;;5049167;28;20052;-62
2022/10/09 05:53:13;;;;;;;12.55;6.85;;;7.60;99.90;;;;;;5030536;28;20033;-62
2022/10/09 05:55:39;;;;;;;12.88;7.10;;;7.60;99.90;;;;;;5048964;28;20563;-62
2022/10/09 05:58:04;;;;;;;14.75;8.40;;;7.60;99.90;;;;;;5081999;28;20513;-62
2022/10/09 06:00:30;;;;;;;11.88;7.07;;;7.60;99.90;;;;;;5048883;28;20052;-62
2022/10/09 06:02:59;;;;;;;11.88;7.03;;;7.60;99.90;;;;;;5037536;28;20033;-62
2022/10/09 06:05:25;;;;;;;12.52;7.60;;;7.50;99.90;;;;;;5043195;28;20048;-62
2022/10/09 06:07:51;;;;;;;10.30;6.07;;;7.50;99.90;;;;;;5046764;28;20044;-61
2022/10/09 06:10:16;;;;;;;11.55;7.40;;;7.50;99.90;;;;;;5078404;28;20048;-62
2022/10/09 06:12:42;;;;;;;11.45;6.63;;;7.50;99.90;;;;;;5046951;28;20041;-62
2022/10/09 06:15:08;;;;;;;11.38;6.82;;;7.60;99.90;;;;;;5048102;28;20099;-62
2022/10/09 06:17:34;;;;;;;14.63;7.55;;;7.50;99.90;;;;;;5048398;28;20045;-62
2022/10/09 06:19:59;;;;;;;12.65;7.25;;;7.50;99.90;;;;;;5047911;28;20049;-62
2022/10/09 06:22:25;;;;;;;12.13;7.68;;;7.50;99.90;;;;;;5048469;28;20547;-62
2022/10/09 06:24:51;;;;;;;11.60;6.78;;;7.50;99.90;;;;;;5048101;28;20041;-62
2022/10/09 06:27:16;;;;;;;11.77;6.72;;;7.60;99.90;;;;;;5048427;28;20075;-62
2022/10/09 06:29:42;;;;;;;12.50;6.60;;;7.50;99.90;;;;;;5046984;28;20724;-62
2022/10/09 06:32:08;;;;;;;17.65;9.77;;;7.60;99.90;;;;;;5036564;28;20041;-62
2022/10/09 06:34:33;;;;;;;13.38;6.10;;;7.60;99.90;;;;;;5076576;28;20090;-62
2022/10/09 06:36:59;;;;;;;13.10;7.60;;;7.60;99.90;;;;;;5059677;28;20068;-62
2022/10/09 06:39:25;;;;;;;12.75;7.50;;;7.70;99.90;;;;;;5064013;28;20397;-62
2022/10/09 06:41:51;;;;;;;10.20;6.78;;;7.70;99.90;;;;;;5031041;28;20381;-62
2022/10/09 06:44:17;;;;;;;11.15;7.10;;;7.70;99.90;;;;;;5046518;28;20036;-63
2022/10/09 06:46:44;;;;;;;18.50;7.15;;;7.70;99.90;;;;;;5048889;28;20041;-63
2022/10/09 06:49:11;;;;;;;12.73;6.43;;;7.80;99.90;;;;;;5047616;28;20511;-63
2022/10/09 06:51:36;;;;;;;12.23;7.20;;;7.80;99.90;;;;;;5048489;28;20044;-63
2022/10/09 06:54:07;;;;;;;14.30;6.55;;;7.90;99.90;;;;;;5030970;28;20049;-63
2022/10/09 06:56:33;;;;;;;12.25;6.60;;;7.90;99.90;;;;;;5047606;28;20056;-63
2022/10/09 06:59:00;;;;;;;13.50;6.65;;;7.90;99.90;;;;;;5030004;28;20037;-62
2022/10/09 07:01:30;;;;;;;10.40;6.22;;;8.00;99.90;;;;;;5048651;28;20131;-63
2022/10/09 07:03:59;;;;;;;10.10;5.78;;;8.10;99.90;;;;;;5079035;28;20746;-62
2022/10/09 07:06:27;;;;;;;14.82;6.85;;;8.10;99.90;;;;;;5047642;28;20506;-63
2022/10/09 07:08:56;;;;;;;12.23;6.47;;;8.10;99.90;;;;;;5046706;28;20044;-62
2022/10/09 07:11:24;;;;;;;19.52;7.35;;;8.20;99.90;;;;;;5047386;28;20033;-62
2022/10/09 07:13:53;;;;;;;14.10;7.25;;;8.20;99.90;;;;;;5049270;28;20379;-62
2022/10/09 07:16:30;;;;;;;14.05;7.95;;;8.30;99.90;;;;;;5052119;28;20048;-62
2022/10/09 07:18:56;;;;;;;14.32;7.50;;;8.40;99.90;;;;;;5083556;28;20072;-62
2022/10/09 07:21:25;;;;;;;11.75;5.97;;;8.50;99.90;;;;;;5052496;28;20056;-63
2022/10/09 07:23:52;;;;;;;9.70;6.07;;;8.50;99.90;;;;;;5050192;28;20033;-62
2022/10/09 07:26:24;;;;;;;16.23;6.25;;;8.50;99.90;;;;;;5032706;28;20553;-62
2022/10/09 07:28:51;;;;;;;12.15;6.35;;;8.60;99.90;;;;;;5033127;28;20056;-62
2022/10/09 07:31:17;;;;;;;11.57;6.65;;;8.70;99.90;;;;;;5048808;28;20067;-62
2022/10/09 07:33:45;;;;;;;12.77;6.50;;;8.70;99.90;;;;;;5033119;28;20112;-62
2022/10/09 07:36:10;;;;;;;10.85;6.40;;;8.70;99.90;;;;;;5051270;28;20052;-62
2022/10/09 07:38:36;;;;;;;12.30;6.88;;;8.80;99.90;;;;;;5083229;28;20048;-62
2022/10/09 07:41:05;;;;;;;10.57;7.13;;;8.80;99.90;;;;;;5050093;28;20045;-63
2022/10/09 07:43:34;;;;;;;14.45;6.80;;;8.90;99.90;;;;;;5050412;28;20771;-63
2022/10/09 07:46:02;;;;;;;12.82;6.60;;;8.90;99.90;;;;;;5051899;28;20504;-63
2022/10/09 07:48:28;;;;;;;13.13;6.85;;;9.00;99.90;;;;;;5049863;28;20515;-63
2022/10/09 07:50:54;;;;;;;11.25;6.47;;;9.00;99.90;;;;;;5016708;28;20036;-63
2022/10/09 07:53:20;;;;;;;14.30;6.88;;;9.10;99.90;;;;;;5051027;28;20041;-63
2022/10/09 07:55:47;;;;;;;11.10;5.85;;;9.10;99.90;;;;;;5049859;28;20072;-63
2022/10/09 07:58:14;;;;;;;10.60;6.32;;;9.20;99.90;;;;;;5049690;28;20036;-63
2022/10/09 08:00:40;;;;;;;11.02;6.35;;;9.30;99.90;;;;;;5050178;28;20051;-63
2022/10/09 08:03:06;;;;;;;11.55;5.75;;;9.30;99.90;;;;;;5048151;28;20123;-63
2022/10/09 08:05:31;;;;;;;9.70;5.32;;;9.40;99.90;;;;;;5050674;28;20045;-62
2022/10/09 08:07:57;;;;;;;11.93;6.25;;;9.50;99.90;;;;;;5049036;28;20048;-62
2022/10/09 08:10:29;;;;;;;10.40;5.72;;;9.60;99.90;;;;;;5047392;28;20044;-62
2022/10/09 08:12:55;;;;;;;11.63;6.22;;;9.60;99.90;;;;;;5049803;28;20482;-61
2022/10/09 08:15:22;;;;;;;13.20;5.35;;;9.70;99.90;;;;;;5015541;28;20095;-61
2022/10/09 08:17:47;;;;;;;10.85;5.82;;;9.80;99.90;;;;;;5082227;28;20117;-60
2022/10/09 08:20:13;;;;;;;17.10;5.47;;;9.90;99.90;;;;;;5051143;28;20040;-62
2022/10/09 08:22:39;;;;;;;8.68;4.35;;;10.00;99.90;;;;;;5048264;28;20048;-62
2022/10/09 08:25:05;;;;;;;10.23;5.15;;;10.00;99.90;;;;;;5048337;28;20481;-63
2022/10/09 08:27:30;;;;;;;9.48;4.95;;;10.10;99.90;;;;;;5046896;28;20048;-62
2022/10/09 08:29:56;;;;;;;9.18;4.95;;;10.20;99.90;;;;;;5082206;28;20041;-62
2022/10/09 08:32:21;;;;;;;13.77;5.55;;;10.20;99.90;;;;;;5082755;28;20037;-62
2022/10/09 08:34:47;;;;;;;9.10;5.13;;;10.30;99.90;;;;;;5050083;28;20048;-62
2022/10/09 08:37:13;;;;;;;13.55;5.72;;;10.40;99.90;;;;;;5080606;28;20045;-62
2022/10/09 08:39:38;;;;;;;12.88;5.63;;;10.50;99.90;;;;;;5049092;28;20110;-62
2022/10/09 08:42:05;;;;;;;11.13;4.95;;;10.50;99.90;;;;;;5050159;28;20037;-62
2022/10/09 08:44:33;;;;;;;10.60;5.15;;;10.60;99.90;;;;;;5049161;28;20041;-62
2022/10/09 08:47:16;;;;;;;12.02;5.13;;;10.60;99.90;;;;;;5048320;28;20047;-63
2022/10/09 08:49:46;;;;;;;10.40;4.72;;;10.70;99.90;;;;;;5049727;28;20485;-63
2022/10/09 08:52:34;;;;;;;9.38;3.92;;;10.80;99.90;;;;;;5048992;28;20492;-63
2022/10/09 08:55:15;;;;;;;10.00;3.63;;;10.90;99.90;;;;;;5049690;28;20088;-63
2022/10/09 08:57:43;;;;;;;10.43;3.35;;;11.00;99.90;;;;;;5049230;28;20071;-62
2022/10/09 09:00:23;;;;;;;11.88;3.92;;;11.00;99.90;;;;;;5084463;28;20048;-64
2022/10/09 09:03:33;;;;;;;9.60;3.60;;;11.10;99.90;;;;;;5051547;28;20179;-64
2022/10/09 09:06:17;;;;;;;8.77;3.25;;;11.20;99.90;;;;;;5041424;28;20524;-64
2022/10/09 09:09:02;;;;;;;9.88;4.28;;;11.30;99.90;;;;;;5084947;28;20417;-63
2022/10/09 09:11:57;;;;;;;9.43;3.53;;;11.40;99.90;;;;;;5052231;28;20045;-63
2022/10/09 09:14:46;;;;;;;12.63;3.35;;;11.40;99.90;;;;;;5051516;28;20041;-63
2022/10/09 09:17:29;;;;;;;9.43;2.85;;;11.50;99.90;;;;;;5051579;28;20041;-63
2022/10/09 09:20:15;;;;;;;9.52;3.63;;;11.60;99.90;;;;;;5052063;28;20116;-63
2022/10/09 09:22:46;;;;;;;8.98;3.45;;;11.70;99.90;;;;;;5053072;28;20041;-63
2022/10/09 09:25:34;;;;;;;11.73;4.10;;;11.70;99.90;;;;;;5053066;28;20041;-62
2022/10/09 09:28:12;;;;;;;7.88;3.13;;;11.80;99.90;;;;;;5050810;28;20124;-63
2022/10/09 09:30:46;;;;;;;11.63;3.67;;;11.80;99.90;;;;;;5051727;28;20036;-64
2022/10/09 09:33:15;;;;;;;10.52;4.20;;;11.90;99.90;;;;;;5052012;28;20037;-63
2022/10/09 09:35:50;;;;;;;8.05;3.25;;;11.90;99.90;;;;;;5045942;28;20432;-64
2022/10/09 09:38:16;;;;;;;12.75;3.83;;;12.00;99.90;;;;;;5045749;28;20052;-63
2022/10/09 09:40:42;;;;;;;8.95;3.00;;;12.00;99.90;;;;;;5049018;28;20048;-63
2022/10/09 09:43:18;;;;;;;10.05;3.80;;;12.10;99.90;;;;;;5048284;28;20074;-63
2022/10/09 09:45:45;;;;;;;8.13;3.15;;;12.10;99.90;;;;;;5046870;28;20037;-63
2022/10/09 09:48:42;;;;;;;11.85;3.75;;;12.20;99.90;;;;;;5048124;28;20044;-64
2022/10/09 09:51:29;;;;;;;7.75;3.25;;;12.30;99.90;;;;;;5048901;28;20043;-63
2022/10/09 09:53:59;;;;;;;6.15;2.97;;;12.40;99.90;;;;;;5047040;28;20036;-65
2022/10/09 09:56:53;;;;;;;8.27;2.95;;;12.40;99.90;;;;;;5047350;28;20091;-63
2022/10/09 09:59:37;;;;;;;7.28;3.15;;;12.50;99.90;;;;;;5045400;28;20045;-64
2022/10/09 10:02:17;;;;;;;7.93;3.20;;;12.60;99.90;;;;;;5027486;28;20172;-63
2022/10/09 10:04:49;;;;;;;9.93;3.08;;;12.60;99.90;;;;;;5034048;28;20126;-64
2022/10/09 10:07:36;;;;;;;6.85;2.80;;;12.70;99.90;;;;;;5047865;28;20045;-63
2022/10/09 10:10:20;;;;;;;7.88;2.83;;;12.80;99.90;;;;;;5046872;28;20080;-63
2022/10/09 10:12:52;;;;;;;6.85;2.75;;;12.80;99.90;;;;;;5044542;28;20052;-63
2022/10/09 10:15:27;;;;;;;10.95;3.30;;;12.80;99.90;;;;;;5028505;28;20053;-63
2022/10/09 10:18:02;;;;;;;9.52;3.25;;;12.90;99.90;;;;;;5037668;28;20045;-64
2022/10/09 10:20:30;;;;;;;8.60;3.10;;;12.90;99.90;;;;;;5048452;28;20055;-64
2022/10/09 10:22:58;;;;;;;6.72;3.35;;;12.90;99.90;;;;;;5045656;28;20060;-64
2022/10/09 10:25:29;;;;;;;9.48;3.58;;;12.90;99.90;;;;;;5052425;28;20052;-63
2022/10/09 10:28:00;;;;;;;9.15;3.90;;;13.00;99.90;;;;;;5043618;28;20053;-63
2022/10/09 10:30:26;;;;;;;6.97;3.10;;;13.00;99.90;;;;;;5046929;28;20076;-64
2022/10/09 10:33:23;;;;;;;9.43;2.92;;;13.10;99.90;;;;;;5048058;28;20068;-64
2022/10/09 10:35:51;;;;;;;9.82;3.40;;;13.10;99.90;;;;;;5048043;28;20036;-64
2022/10/09 10:38:23;;;;;;;8.38;2.97;;;13.20;99.90;;;;;;5047956;28;20061;-63
2022/10/09 10:41:07;;;;;;;8.02;2.70;;;13.20;99.90;;;;;;5048068;28;20505;-64
2022/10/09 10:44:06;;;;;;;8.70;2.63;;;13.30;99.90;;;;;;5047100;28;20051;-64
2022/10/09 10:46:48;;;;;;;7.50;2.40;;;13.40;99.90;;;;;;5045806;28;20405;-64
2022/10/09 10:49:21;;;;;;;7.70;2.50;;;13.50;99.90;;;;;;5051053;28;20045;-64
2022/10/09 10:52:02;;;;;;;8.18;3.10;;;13.50;99.90;;;;;;5050028;28;20061;-63
2022/10/09 10:55:25;;;;;;;6.43;2.53;;;13.50;99.90;;;;;;5051403;28;20065;-64
2022/10/09 10:58:17;;;;;;;7.78;2.65;;;13.60;99.90;;;;;;5051195;28;20072;-64
2022/10/09 11:00:53;;;;;;;8.60;3.10;;;13.60;99.90;;;;;;5080053;28;20152;-63
2022/10/09 11:03:33;;;;;;;7.00;2.20;;;13.60;99.90;;;;;;5051673;28;20055;-63
2022/10/09 11:06:27;;;;;;;8.70;2.60;;;13.70;99.90;;;;;;5050827;28;20095;-64
2022/10/09 11:09:08;;;;;;;8.93;2.40;;;13.70;99.90;;;;;;5085491;28;20041;-63
2022/10/09 11:11:41;;;;;;;14.48;3.03;;;13.80;99.90;;;;;;5084170;28;20053;-63
2022/10/09 11:14:56;;;;;;;6.35;2.60;;;13.80;99.90;;;;;;5085423;28;20351;-64
2022/10/09 11:17:50;;;;;;;7.80;2.53;;;13.90;99.90;;;;;;5053032;28;20029;-63
2022/10/09 11:20:53;;;;;;;9.15;2.42;;;13.90;99.90;;;;;;5083775;28;20106;-63
2022/10/09 11:23:33;;;;;;;7.88;2.00;;;13.90;99.90;;;;;;5050641;28;20076;-64
2022/10/09 11:26:10;;;;;;;5.78;1.88;;;13.90;99.90;;;;;;5046866;28;20041;-64
2022/10/09 11:28:50;;;;;;;6.38;2.08;;;13.90;99.90;;;;;;5049187;28;20060;-64
2022/10/09 11:31:20;;;;;;;6.05;2.08;;;13.90;99.90;;;;;;5049898;28;20045;-64
2022/10/09 11:33:54;;;;;;;8.88;2.28;;;14.00;99.90;;;;;;5050658;28;20042;-64
2022/10/09 11:36:26;;;;;;;8.57;2.35;;;14.00;99.90;;;;;;5049858;28;20044;-63
2022/10/09 11:38:57;;;;;;;5.53;1.60;;;14.10;99.90;;;;;;5033323;28;20044;-64
2022/10/09 11:41:24;;;;;;;7.47;1.80;;;14.00;99.90;;;;;;5050436;28;20121;-64
2022/10/09 11:43:55;;;;;;;5.35;1.60;;;14.10;99.90;;;;;;5051250;28;20040;-64
2022/10/09 11:46:24;;;;;;;10.68;2.30;;;14.10;99.90;;;;;;5047174;28;20071;-64
2022/10/09 11:49:22;;;;;;;7.57;2.35;;;14.20;99.90;;;;;;5050981;28;20052;-64
2022/10/09 11:52:24;;;;;;;5.28;1.63;;;14.20;99.90;;;;;;5032876;28;20053;-63
2022/10/09 11:54:53;;;;;;;4.57;1.77;;;14.30;99.90;;;;;;5050267;28;20683;-64
2022/10/09 11:57:29;;;;;;;5.47;1.73;;;14.40;99.90;;;;;;5051402;28;20056;-64
2022/10/09 12:00:07;;;;;;;7.25;1.85;;;14.40;99.90;;;;;;5049931;28;20033;-64
2022/10/09 12:02:34;;;;;;;5.28;1.75;;;14.40;99.90;;;;;;5051235;28;20508;-64
2022/10/09 12:05:00;;;;;;;7.22;1.95;;;14.40;99.90;;;;;;5050037;28;20040;-64
2022/10/09 12:07:33;;;;;;;6.55;1.70;;;14.40;99.90;;;;;;5048802;28;20045;-64
2022/10/09 12:10:06;;;;;;;5.75;1.80;;;14.50;99.90;;;;;;5048859;28;20556;-64
2022/10/09 12:12:33;;;;;;;7.00;2.10;;;14.50;99.90;;;;;;5050940;28;20045;-64
2022/10/09 12:15:23;;;;;;;10.52;2.30;;;14.50;99.90;;;;;;5048277;28;20047;-64
2022/10/09 12:17:49;;;;;;;6.38;1.70;;;14.50;99.90;;;;;;5048971;28;20040;-64
2022/10/09 12:20:23;;;;;;;6.10;1.45;;;14.60;99.90;;;;;;5047203;28;20037;-64
2022/10/09 12:22:54;;;;;;;9.77;2.35;;;14.60;99.90;;;;;;5048571;28;20482;-64
2022/10/09 12:25:29;;;;;;;6.13;1.83;;;14.60;99.90;;;;;;5049897;28;20464;-64
2022/10/09 12:27:56;;;;;;;7.00;1.85;;;14.60;99.90;;;;;;5050666;28;20545;-64
2022/10/09 12:30:32;;;;;;;14.15;2.70;;;14.60;99.90;;;;;;5048775;28;20532;-64
2022/10/09 12:33:00;;;;;;;7.78;1.95;;;14.60;99.90;;;;;;5049108;28;20497;-64
2022/10/09 12:35:35;;;;;;;9.80;2.70;;;14.60;99.90;;;;;;5048221;28;20072;-64
2022/10/09 12:38:01;;;;;;;6.75;2.35;;;14.60;99.90;;;;;;5049173;28;20095;-64
2022/10/09 12:40:30;;;;;;;9.77;2.22;;;14.70;99.90;;;;;;5050546;28;20036;-64
2022/10/09 12:42:59;;;;;;;9.18;3.05;;;14.70;99.90;;;;;;5031116;28;20084;-63
2022/10/09 12:45:29;;;;;;;6.47;2.40;;;14.80;99.90;;;;;;5080262;28;20109;-63
2022/10/09 12:47:57;;;;;;;8.63;2.97;;;14.80;99.90;;;;;;5033175;28;20131;-64
2022/10/09 12:50:31;;;;;;;9.30;2.40;;;14.80;99.90;;;;;;5048725;28;20508;-64
2022/10/09 12:52:59;;;;;;;15.02;4.35;;;14.90;99.90;;;;;;5049694;28;20067;-64
2022/10/09 12:55:28;;;;;;;6.85;2.72;;;14.90;99.90;;;;;;5050879;28;20056;-64
2022/10/09 12:57:57;;;;;;;8.57;2.40;;;14.90;99.90;;;;;;5048501;28;20037;-64
2022/10/09 13:00:23;;;;;;;8.77;2.35;;;15.00;99.90;;;;;;5050784;28;20102;-64
2022/10/09 13:02:48;;;;;;;8.48;2.63;;;15.00;99.90;;;;;;5049255;28;20041;-64
2022/10/09 13:05:14;;;;;;;11.13;2.83;;;15.00;99.90;;;;;;5048820;28;20057;-64
2022/10/09 13:07:40;;;;;;;7.07;2.38;;;15.00;99.90;;;;;;5032050;28;20066;-64